Startpagina
METAR-TAF:

METAR-TAF

Vliegvelden :

Vliegbasis Deelen

Arnhem, Nederland

breedte: 52-04N, lengte: 005-53E, hoogte: 48 m

Actueel weer

Dit bericht is 19 minuten geleden gemaakt, om 23:25 UTC
Wind 3 kt uit het oostnoordoosten, variërend tussen het noordoosten en het oostzuidoosten
Temperatuur 4°C
Vochtigheid 81%
Druk 1034 hPa
Zicht: 6000 m
Geheel bewolkt op 1700 ft
nevel

METAR: EHDL 242325Z AUTO 06003KT 040V120 6000 BR OVC017 04/01 Q1034 WHT

Tijdstip: 00:44 (23:44 UTC)


TAF: ontbreekt

Waarnemingen en weersverwachtingen van meer dan 4000 vliegvelden (METAR en TAF).

De beschikbare stations zijn de gele en rode punten op de kaart.

Ga met uw muis naar het station om de naam te zien.

Klik dan om waarnemingen en weersverwachtingen te zien.

kaart wijzigen: klik op de groene knoppen met een zwart kruis om in te zoomen, op de groene knop met een streepje om uit te zoomen of op de groene pijlen voor aangrenzende kaarten.


METAR-TAF: